Main page
METAR-TAF:

METAR-TAF

Airports :

RAF Brize Norton

Brize Norton, England

latitude: 51-45N, longitude: 001-35W, elevation: 88 m

Current weather observation

The report was made 24 minutes ago, at 08:50 UTC
Wind 5 kt from the West
Temperature 8°C
Humidity 76%
Pressure 1035 hPa
Visibility 10 km or more
no clouds below 1500 m and no cumulonimbus

METAR: EGVN 260850Z 28005KT CAVOK 08/04 Q1035 NOSIG

Time: 09:14 (09:14 UTC)

Forecast

The report was made 1 hour and 36 minutes ago, at 07:38 UTC
Forecast valid from 26 at 09 UTC to 27 at 09 UTC
Wind 5 kt from the Northwest
Visibility 10 km or more
Scattered clouds at a height of 3500 ft
Probability 30% :
Temporary
from 27 at 03 UTC to 27 at 09 UTC
Scattered clouds at a height of 2000 ft

TAF: EGVN 260738Z 2609/2709 31005KT 9999 SCT035 PROB30 TEMPO 2703/2709 SCT020

Weather observations and forecasts of more than 4000 airports (METAR and TAF reports).

The available stations are represented by yellow and red dots on the map.

Hover mouse over dot to see the name of the station.

Then click to see weather observations and forecasts.

To change the map : click on the green buttons with a black cross to zoom in, on the green button with a dash to zoom out, or on the green arrows for adjacent maps.


METAR-TAF: